Chevy Chase, Maryland
Current Conditions -  °F | °C
As of 10:10 AM on Thursday 30 Oct 2014 (Local Time) from KCGS Reporting Station
Clear Clear  
Wind Chill: 54°   Ceiling: Unl
Heat Index: 54°   Visibility: 10mi
Dew Point: 39°   Wind: 9mph
Humidity: 58%   Direction: 330°NNW
Pressure: 30.07"   Gusts: NA
Location:  39°N, 77.07°W
Report Text: KCGS 301410Z AUTO 33008KT 10SM CLR 12/04 A3007 RMK AO1
Loading
Personal Weather Stations






























Interactive Weather Map
Tropical Storm Tracking
New forecast layout! Learn more

10-Day Weather Forecast

Advertisements
Track Severe Weather on mobile